UUWWURKK

Guest
Details From UUWW - Vnukovo
To URKK - Pashkovskiy
Flight Number -
Tags Generated
Created
Modified
Stats Distance 639 nm / 1,184 km
Max Altitude 0 ft / 0 m
Waypoints 4
Social Downloads 7
Likes 0
Share VATSIM

Download

Looking for another format? Having issues loading an existing format? Contact us
Advertisement - Login to hide

Notes

Generated

Route

UUWW MASOL NODMI URKK

ID Type Via Altitude Latitude Longitude Leg Dist Tot Dist Heading (true) Name
O UUWW APT - 0 ft / 0 m 55.58804˚ 37.24603˚ - 0 nm - -
MASOL FIX - 0 ft / 0 m 50.07488˚ 38.22500˚ 332 nm 332 nm 173° / 174° -
NODMI FIX - 0 ft / 0 m 45.03500˚ 39.17000˚ 305 nm 638 nm 172° / 173° -
O URKK APT - 0 ft / 0 m 45.02906˚ 39.14142˚ 1 nm 639 nm 254° / 254° -

Altitude Profile

Advertisement - Login to hide

Weather


0- 5 10 15 20 25 30 35+ Temperature / ° C

Clouds and Precipitation
Forecast for 2017-12-18 12:00 UTC. Updated 19 minutes ago

Ground ~20,000 ft ~40,000 ft Winds

UUWW

Details ICAO UUWW (VKO)
Name VNUKOVO
Region Russia
Timezone Europe/Moscow (UTC+3.0)
Stats Elevation 685 ft / 209 m (AMSL)
Location 55.596061° 37.267664°
Runways 2
Magnetic Variation 10.961° E

METAR

UUWW 181130Z 04006MPS 9999 OVC015 00/M03 Q1021 R06/000070 NOSIG

Decode

TAF

TAF UUWW 180800Z 1809/1909 05007MPS 3100 -SN OVC007 TX00/1811Z TNM00/1906Z TEMPO 1809/1814 1100 SHSN OVC004 BKN012CB PROB40 TEMPO 1812/1906 -FZRA OVC002 BECMG 1814/1815 1500 SN OVC004 TEMPO 1815/1903 05012MPS 0600 +SHSN OVC002 BKN010CB

Decode

Departure Runways

ID Width Length Bearing (true) Bearing (mag) Surface Threshold Offset Overrun Length
02 197 ft / 60 m 9,993 ft / 3,046 m 23.36° 12.40° Asphalt 0 ft / 0 m 140 ft / 43 m
06 197 ft / 60 m 9,785 ft / 2,982 m 68.26° 57.30° Asphalt 0 ft / 0 m 250 ft / 76 m
20 197 ft / 60 m 9,993 ft / 3,046 m 203.37° 192.41° Asphalt 0 ft / 0 m 150 ft / 46 m
24 197 ft / 60 m 9,785 ft / 2,982 m 248.29° 237.33° Asphalt 0 ft / 0 m 260 ft / 79 m

URKK

Details ICAO URKK (KRR)
Name PASHKOVSKIY
Region Russia
Timezone Europe/Moscow (UTC+3.0)
Stats Elevation 118 ft / 36 m (AMSL)
Location 45.034644° 39.170454°
Runways 2
Magnetic Variation 7.356° E

METAR

URKK 181130Z 23004MPS 9999 SCT062CB 14/09 Q1015 R23L/290060 TEMPO 2000 TSRA BKN007 BKN020CB RMK QFE758

Decode

TAF

TAF AMD URKK 180936Z 1810/1909 18003G08MPS 9999 BKN030CB TEMPO 1810/1815 22007G14MPS 3100 -SHRA BKN011 BKN020CB PROB40 TEMPO 1810/1815 -TSRA FM181500 33003G08MPS 5000 -SHRA BR BKN011 BKN020CB TEMPO 1815/1909 2000 SHRA SCT005 BKN020CB

Decode

Destination Runways

ID Width Length Bearing (true) Bearing (mag) Surface Threshold Offset Overrun Length
05L 160 ft / 49 m 7,177 ft / 2,187 m 52.37° 45.01° Asphalt 0 ft / 0 m 160 ft / 49 m
05R 145 ft / 44 m 9,822 ft / 2,994 m 52.45° 45.09° Concrete 0 ft / 0 m 160 ft / 49 m
23L 145 ft / 44 m 9,822 ft / 2,994 m 232.47° 225.11° Concrete 0 ft / 0 m 160 ft / 49 m
23R 160 ft / 49 m 7,177 ft / 2,187 m 232.38° 225.02° Asphalt 0 ft / 0 m 160 ft / 49 m

Popular Alternatives